Brown, John
United StatesManBorn 19572010 – 2025Runner id 143701
Events
57
56 race dates
Best pace
11.592
km/h · 2011
Best finish
1st
of 37 · 2013
Distance raced
5,699
km · splits not double-counted
Pace over time
km/h · higher is faster
Pace over time: 56 races and 1 split from 2010 to 2025, ranging from 2.27 to 13.46 kilometres per hour, where higher is faster. A second, age-graded series is drawn above it; the gap between the two is the age credit.
- Actual pace
- Age-graded pace
- Split of a race already plotted
Results
| Date | Event | Distance | Result | Pace km/h | Placing |
|---|---|---|---|---|---|
| 2010-05-22 | 100km | 14:03:00 h | 7.117 | 8/14 | |
| 2010-07-17 | 24h | 163.300 km | 6.804 | 13/158 | |
| 2010-11-06 | 50mi | 7:59:55 h | 10.060 | 9/111 | |
| 2011-03-19 | 100km | 9:45:23 h | 10.250 | 2/18 | |
| 2011-05-29 | 50mi | 7:51:47 h | 10.234 | 21/119 | |
| 2011-07-16 | 24h | 122.477 km | 5.103 | 42/198 | |
| 2011-10-08 | 50km | 5:31:57 h | 9.038 | 12/42 | |
| 2011-11-13 | 6h | 69.549 km | 11.592 | 4/44 | |
| 2012-05-27 | Trail Festival at Pineland FarmsUnited States | 50km | 5:06:41 h | 9.782 | 48/191 |
| 2012-07-14 | 24h | 54.434 km | 2.268 | 186/195 | |
| 2012-08-18 | 50km | 5:50:00 h | 8.571 | 3/31 | |
| 2012-10-13 | 50km | 5:09:55 h | 9.680 | 19/66 | |
| 2012-11-03 | Stone Cat 37.5 MileUnited States | 37.5mi | 6:40:49 h | 9.034 | 2/17 |
| 2013-03-24 | 6h | 50.694 km | 8.449 | 6/22 | |
| 2013-05-26 | 50mi | 8:04:44 h | 9.960 | 10/100 | |
| 2013-06-14 | 100mi | 23:26:07 h | 6.867 | 15/65 | |
| 2013-10-26 | Ghost Train Rail Trail Race 60 MileUnited States | 60mi | 10:59:00 h | 8.792 | 1/37 |
| 2014-03-22 | New Jersey Ultra Festival 50 Mile RaceUnited States | 50mi | 8:21:45 h | 9.622 | 3/33 |
| 2014-05-25 | 50km | 6:10:00 h | 8.108 | 147/209 | |
| 2014-06-07 | 50mi | 11:58:39 h | 6.718 | 25/67 | |
| 2014-07-19 | 24h | 122.535 km | 5.106 | 34/140 | |
| 2015-04-25 | 50km | 5:13:25 h | 9.572 | 17/100 | |
| 2015-05-24 | Trail Festival at Pineland FarmsUnited States | 50mi | 9:35:03 h | 8.396 | 49/109 |
| 2015-07-18 | Lone Ranger 24 hr Urban UltraUnited States | 24h | 122.535 km | 5.106 | 24/128 |
| 2015-08-14 | 24h | 141.863 km | 5.911 | 7/20 | |
| 2015-10-24 | 60mi | 11:53:00 h | 8.126 | 5/48 | |
| 2016-04-24 | 50km | 5:46:16 h | 8.664 | 7/20 | |
| 2016-05-29 | Trail Festival at Pineland FarmsUnited States | 50mi | 8:10:45 h | 9.838 | 28/127 |
| 2016-07-16 | Vermont 100 Mile Endurance RaceUnited States | 100mi | 22:50:53 h | 7.044 | 70/256 |
| 2016-08-19 | 24h | 102.515 km | 4.271 | 20/51 | |
| 2016-10-01 | 9h | 80.080 km | 8.898 | 1/14 | |
| 2016-10-22 | 100mi | 20:05:00 h | 8.013 | 7/42 | |
| 2017-02-04 | Cape Cod Frozen 50k RaceUnited States | 50km | 4:55:00 h | 10.169 | 1/24 |
| 2017-04-01 | 50km | 7:47:00 h | 6.424 | 7/25 | |
| 2017-08-18 | Anchor Down Ultra 24 Hour RunUnited States | 24h | 130.115 km | 5.421 | 11/63 |
| 2017-09-16 | 9h | 70.070 km | 7.786 | 5/47 | |
| 2017-10-21 | 100mi | 20:23:55 h | 7.889 | 14/65 | |
| 2018-04-21 | 50km | 5:18:05 h | 9.431 | 21/80 | |
| 2018-05-17 | 72h | 362.102 km | 5.029 | 3/44 | |
| 2018-05-17 | 3 Days at the Fair 72 Hour Race - 48h SplitUnited StatesSplit of a longer race in this career; not counted again in the distance total | 48h | 296.119 km | 6.169 | 1/44 |
| 2018-06-09 | 50mi | 14:40:00 h | 5.486 | 116/119 | |
| 2018-08-17 | Anchor Down Ultra 24 Hour RunUnited States | 24h | 125.528 km | 5.230 | 13/69 |
| 2018-09-22 | 9h | 78.857 km | 8.762 | 2/34 | |
| 2018-10-20 | 100mi | 19:45:15 h | 8.147 | 8/76 | |
| 2019-04-20 | 50km | 5:22:22 h | 9.306 | 20/90 | |
| 2019-05-16 | 72h | 325.087 km | 4.515 | 7/44 | |
| 2019-06-29 | 30h | 82.543 km | 2.751 | 51/66 | |
| 2019-08-16 | Anchor Down Ultra 24 Hour RunUnited States | 24h | 149.829 km | 6.243 | 16/74 |
| 2019-10-19 | 100mi | 21:23:25 h | 7.524 | 5/59 | |
| 2021-10-16 | 100mi | 28:25:56 h | 5.660 | 30/40 |
Showing 1–50 of 57